Time;durP1;ratioP1;P1;durP2;ratioP2;P2;SDS_P1;SDS_P2;PMS_P1;PMS_P2;Temp;Humidity;BMP_temperature;BMP_pressure;BME280_temperature;BME280_humidity;BME280_pressure;Samples;Min_cycle;Max_cycle;Signal;HPM_P1;HPM_P2
2023/01/30 02:23:22;;;;;;;3.97;3.78;;;-2.70;99.90;;;;;;6117095;23;20380;-81
2023/01/30 02:26:20;;;;;;;4.07;3.88;;;-2.70;99.90;;;;;;6095851;23;20466;-81
2023/01/30 02:29:18;;;;;;;4.00;3.80;;;-2.70;99.90;;;;;;6096345;23;20879;-81
2023/01/30 02:31:47;;;;;;;4.13;3.92;;;-2.70;99.90;;;;;;6096919;23;20451;-81
2023/01/30 02:34:49;;;;;;;3.80;3.60;;;-2.70;99.90;;;;;;6095992;23;20368;-81
2023/01/30 02:37:32;;;;;;;3.90;3.70;;;-2.80;99.90;;;;;;6071534;23;20447;-81
2023/01/30 02:40:09;;;;;;;3.70;3.50;;;-2.80;99.90;;;;;;6096294;23;20376;-81
2023/01/30 02:43:02;;;;;;;4.13;3.90;;;-2.80;99.90;;;;;;6096102;23;20426;-81
2023/01/30 02:45:38;;;;;;;3.85;3.65;;;-2.80;99.90;;;;;;6091069;23;20399;-81
2023/01/30 02:48:06;;;;;;;4.03;3.83;;;-2.80;99.90;;;;;;6095725;23;20410;-80
2023/01/30 02:50:36;;;;;;;3.85;3.65;;;-2.80;99.90;;;;;;6096942;23;20368;-81
2023/01/30 02:53:05;;;;;;;3.85;3.65;;;-2.90;99.90;;;;;;6096497;23;20852;-82
2023/01/30 02:55:32;;;;;;;4.00;3.80;;;-2.90;99.90;;;;;;6095911;23;20402;-81
2023/01/30 02:58:01;;;;;;;3.58;3.38;;;-2.90;99.90;;;;;;6096801;23;20368;-81
2023/01/30 03:00:50;;;;;;;3.80;3.60;;;-3.00;99.90;;;;;;6096258;23;20812;-81
2023/01/30 03:03:36;;;;;;;3.13;3.03;;;-3.00;99.90;;;;;;6091111;23;20432;-81
2023/01/30 03:06:09;;;;;;;3.25;3.15;;;-3.10;99.90;;;;;;6067594;23;20376;-81
2023/01/30 03:08:49;;;;;;;3.78;3.58;;;-3.00;99.90;;;;;;6092128;23;20998;-81
2023/01/30 03:11:16;;;;;;;3.67;3.47;;;-3.00;99.90;;;;;;6066865;23;20456;-81
2023/01/30 03:14:12;;;;;;;3.70;3.50;;;-3.10;99.90;;;;;;6067526;23;20746;-81
2023/01/30 03:16:40;;;;;;;4.18;3.97;;;-3.10;99.90;;;;;;6091907;23;20445;-81
2023/01/30 03:19:12;;;;;;;3.90;3.70;;;-3.20;99.90;;;;;;6067936;23;20764;-81
2023/01/30 03:21:43;;;;;;;3.80;3.60;;;-3.20;99.90;;;;;;6066614;23;20381;-81
2023/01/30 03:24:11;;;;;;;4.15;3.95;;;-3.20;99.90;;;;;;6067858;23;20452;-79
2023/01/30 03:26:45;;;;;;;3.60;3.40;;;-3.30;99.90;;;;;;6066658;23;20381;-79
2023/01/30 03:29:12;;;;;;;3.78;3.58;;;-3.40;99.90;;;;;;6067772;23;20385;-78
2023/01/30 03:31:39;;;;;;;3.95;3.75;;;-3.40;99.90;;;;;;6067306;23;20883;-79
2023/01/30 03:34:06;;;;;;;3.72;3.53;;;-3.40;99.90;;;;;;6068677;23;20759;-78
2023/01/30 03:36:33;;;;;;;3.95;3.75;;;-3.40;99.90;;;;;;6067412;23;20385;-78
2023/01/30 03:39:00;;;;;;;3.88;3.67;;;-3.30;99.90;;;;;;6070192;23;20377;-78
2023/01/30 03:41:27;;;;;;;3.67;3.47;;;-3.30;99.90;;;;;;6068991;23;20416;-78
2023/01/30 03:43:54;;;;;;;4.05;3.85;;;-3.30;99.90;;;;;;6070012;23;20373;-78
2023/01/30 03:46:21;;;;;;;3.83;3.63;;;-3.30;99.90;;;;;;6069207;23;20378;-78
2023/01/30 03:48:48;;;;;;;3.80;3.60;;;-3.30;99.90;;;;;;6070626;23;20394;-78
2023/01/30 03:51:15;;;;;;;3.75;3.55;;;-3.30;99.90;;;;;;6070963;23;20444;-79
2023/01/30 03:53:41;;;;;;;4.00;3.80;;;-3.30;99.90;;;;;;6068085;23;20912;-78
2023/01/30 03:56:08;;;;;;;3.85;3.65;;;-3.30;99.90;;;;;;6069485;23;20867;-78
2023/01/30 03:58:35;;;;;;;3.75;3.55;;;-3.40;99.90;;;;;;6068134;23;20746;-78
2023/01/30 04:01:02;;;;;;;3.55;3.35;;;-3.40;99.90;;;;;;6069241;23;20432;-78
2023/01/30 04:03:29;;;;;;;4.03;3.83;;;-3.40;99.90;;;;;;6068475;23;20397;-78
2023/01/30 04:05:56;;;;;;;3.80;3.60;;;-3.40;99.90;;;;;;6069794;23;20373;-79
2023/01/30 04:08:23;;;;;;;3.53;3.38;;;-3.50;99.90;;;;;;6067707;23;20381;-78
2023/01/30 04:10:50;;;;;;;3.55;3.40;;;-3.50;99.90;;;;;;6069365;23;20389;-78
2023/01/30 04:13:17;;;;;;;3.80;3.60;;;-3.50;99.90;;;;;;6068905;23;20452;-78
2023/01/30 04:15:44;;;;;;;3.80;3.60;;;-3.40;99.90;;;;;;6068794;23;20374;-78
2023/01/30 04:18:10;;;;;;;4.00;3.80;;;-3.50;99.90;;;;;;6069329;23;20722;-78
2023/01/30 04:20:37;;;;;;;3.83;3.63;;;-3.50;99.90;;;;;;6068135;23;20460;-78
2023/01/30 04:23:04;;;;;;;3.97;3.78;;;-3.50;99.90;;;;;;6090810;23;20716;-78
2023/01/30 04:25:31;;;;;;;3.80;3.60;;;-3.50;99.90;;;;;;6097433;23;20387;-78
2023/01/30 04:27:58;;;;;;;3.85;3.65;;;-3.50;99.90;;;;;;6098176;23;20902;-78
2023/01/30 04:30:25;;;;;;;3.50;3.30;;;-3.50;99.90;;;;;;6097007;23;20386;-78
2023/01/30 04:32:52;;;;;;;3.72;3.53;;;-3.50;99.90;;;;;;6097567;23;20380;-79
2023/01/30 04:35:19;;;;;;;3.42;3.22;;;-3.50;99.90;;;;;;6098036;23;20910;-78
2023/01/30 04:37:46;;;;;;;3.90;3.70;;;-3.50;99.90;;;;;;6096750;23;20426;-78
2023/01/30 04:40:13;;;;;;;3.75;3.55;;;-3.50;99.90;;;;;;6097633;23;20379;-78
2023/01/30 04:42:40;;;;;;;3.60;3.40;;;-3.50;99.90;;;;;;6122001;23;20407;-78
2023/01/30 04:45:07;;;;;;;3.63;3.42;;;-3.50;99.90;;;;;;6097736;23;20383;-78
2023/01/30 04:47:34;;;;;;;4.00;3.80;;;-3.50;99.90;;;;;;6097056;23;20376;-78
2023/01/30 04:50:01;;;;;;;4.07;3.88;;;-3.60;99.90;;;;;;6097148;23;20387;-78
2023/01/30 04:52:28;;;;;;;3.80;3.60;;;-3.60;99.90;;;;;;6096644;23;20413;-78
2023/01/30 04:54:55;;;;;;;3.40;3.20;;;-3.70;99.90;;;;;;6097564;23;20375;-78
2023/01/30 04:57:22;;;;;;;3.90;3.70;;;-3.70;99.90;;;;;;6097901;23;20380;-78
2023/01/30 04:59:48;;;;;;;5.10;4.80;;;-3.60;99.90;;;;;;6096813;23;20908;-78
2023/01/30 05:02:15;;;;;;;4.60;4.38;;;-3.70;99.90;;;;;;6097070;23;20380;-78
2023/01/30 05:04:47;;;;;;;4.63;4.40;;;-3.70;99.90;;;;;;6095799;23;20436;-78
2023/01/30 05:07:14;;;;;;;5.40;5.10;;;-3.70;99.90;;;;;;6122975;23;20859;-78
2023/01/30 05:09:41;;;;;;;4.95;4.65;;;-3.70;99.90;;;;;;6095901;23;20384;-78
2023/01/30 05:12:08;;;;;;;5.03;4.72;;;-3.70;99.90;;;;;;6097372;23;20379;-79
2023/01/30 05:14:34;;;;;;;4.07;3.88;;;-3.60;99.90;;;;;;6096880;23;20415;-78
2023/01/30 05:17:01;;;;;;;4.75;4.45;;;-3.70;99.90;;;;;;6097326;23;20839;-78
2023/01/30 05:19:28;;;;;;;4.35;4.10;;;-3.60;99.90;;;;;;6096377;23;20689;-78
2023/01/30 05:21:57;;;;;;;4.57;4.28;;;-3.70;99.90;;;;;;6097830;23;20467;-79
2023/01/30 05:24:24;;;;;;;4.22;4.03;;;-3.60;99.90;;;;;;6097633;23;20383;-78
2023/01/30 05:26:51;;;;;;;4.47;4.28;;;-3.60;99.90;;;;;;6096382;23;20430;-78
2023/01/30 05:29:18;;;;;;;4.22;4.03;;;-3.60;99.90;;;;;;6097670;23;20875;-78
2023/01/30 05:31:45;;;;;;;4.07;3.88;;;-3.60;99.90;;;;;;6096273;23;20399;-78
2023/01/30 05:34:12;;;;;;;4.00;3.80;;;-3.60;99.90;;;;;;6097207;23;20836;-78
2023/01/30 05:36:39;;;;;;;3.80;3.60;;;-3.60;99.90;;;;;;6096200;23;20371;-78
2023/01/30 05:39:06;;;;;;;4.45;4.25;;;-3.70;99.90;;;;;;6096332;23;20415;-78
2023/01/30 05:41:32;;;;;;;3.80;3.60;;;-3.70;99.90;;;;;;6096595;23;20447;-78
2023/01/30 05:43:59;;;;;;;3.78;3.58;;;-3.60;99.90;;;;;;6097127;23;20399;-78
2023/01/30 05:46:26;;;;;;;3.70;3.50;;;-3.70;99.90;;;;;;6097548;23;20399;-78
2023/01/30 05:48:53;;;;;;;3.80;3.60;;;-3.70;99.90;;;;;;6096123;23;20407;-78
2023/01/30 05:51:22;;;;;;;3.85;3.65;;;-3.80;99.90;;;;;;6097159;23;20372;-78
2023/01/30 05:53:50;;;;;;;3.92;3.72;;;-3.80;99.90;;;;;;6096545;23;20396;-78
2023/01/30 05:56:18;;;;;;;3.47;3.35;;;-3.80;99.90;;;;;;6097292;23;20399;-78
2023/01/30 05:58:53;;;;;;;4.00;3.80;;;-3.80;99.90;;;;;;6096233;23;20383;-78
2023/01/30 06:01:20;;;;;;;4.55;4.35;;;-3.80;99.90;;;;;;6096683;23;20380;-78
2023/01/30 06:03:48;;;;;;;5.95;5.65;;;-3.70;99.90;;;;;;6095905;23;20407;-77
2023/01/30 06:06:15;;;;;;;5.50;5.20;;;-3.70;99.90;;;;;;6097965;23;20378;-78
2023/01/30 06:08:43;;;;;;;4.95;4.75;;;-3.70;99.90;;;;;;6096105;23;20858;-78
2023/01/30 06:11:13;;;;;;;4.90;4.70;;;-3.60;99.90;;;;;;6097339;23;20375;-78
2023/01/30 06:13:40;;;;;;;4.88;4.68;;;-3.60;99.90;;;;;;6095817;23;20676;-78
2023/01/30 06:16:10;;;;;;;4.88;4.57;;;-3.50;99.90;;;;;;6097025;23;20589;-78
2023/01/30 06:18:38;;;;;;;4.40;4.20;;;-3.50;99.90;;;;;;6096044;23;20403;-78
2023/01/30 06:21:06;;;;;;;4.32;4.13;;;-3.40;99.90;;;;;;6097250;23;20398;-79
2023/01/30 06:23:34;;;;;;;3.90;3.70;;;-3.40;99.90;;;;;;6095425;23;20375;-78
2023/01/30 06:26:01;;;;;;;4.05;3.85;;;-3.30;99.90;;;;;;6098794;23;20379;-79
2023/01/30 06:28:31;;;;;;;3.90;3.70;;;-3.40;99.90;;;;;;6122150;23;20407;-78
2023/01/30 06:30:58;;;;;;;4.00;3.80;;;-3.30;99.90;;;;;;6095551;23;20384;-79
2023/01/30 06:33:25;;;;;;;3.95;3.75;;;-3.30;99.90;;;;;;6096804;23;20379;-78
2023/01/30 06:35:52;;;;;;;4.00;3.80;;;-3.30;99.90;;;;;;6095750;23;20435;-78
2023/01/30 06:38:19;;;;;;;4.00;3.80;;;-3.30;99.90;;;;;;6122950;23;20402;-78
2023/01/30 06:40:49;;;;;;;3.97;3.78;;;-3.20;99.90;;;;;;6095346;23;20748;-78
2023/01/30 06:43:16;;;;;;;4.07;3.88;;;-3.20;99.90;;;;;;6097338;23;20820;-78
2023/01/30 06:45:43;;;;;;;4.40;4.20;;;-3.20;99.90;;;;;;6095662;23;20375;-78
2023/01/30 06:48:10;;;;;;;4.10;3.90;;;-3.20;99.90;;;;;;6097137;23;20371;-78
2023/01/30 06:50:37;;;;;;;3.88;3.67;;;-3.30;99.90;;;;;;6096011;23;20387;-78
2023/01/30 06:53:09;;;;;;;3.67;3.53;;;-3.20;99.90;;;;;;6096608;23;20383;-78
2023/01/30 06:55:37;;;;;;;3.33;3.17;;;-3.20;99.90;;;;;;6095563;23;20388;-78
2023/01/30 06:58:13;;;;;;;3.10;3.00;;;-3.20;99.90;;;;;;6122414;23;20367;-78
2023/01/30 07:00:42;;;;;;;3.70;3.50;;;-3.10;99.90;;;;;;6095809;23;20442;-79
2023/01/30 07:03:14;;;;;;;2.97;2.88;;;-3.10;99.90;;;;;;6096473;23;20402;-78
2023/01/30 07:05:43;;;;;;;3.10;3.00;;;-3.10;99.90;;;;;;6096126;23;20704;-79
2023/01/30 07:08:11;;;;;;;3.40;3.20;;;-3.10;99.90;;;;;;6121976;23;20376;-80
2023/01/30 07:10:39;;;;;;;2.80;2.70;;;-3.10;99.90;;;;;;6095466;23;20846;-79
2023/01/30 07:13:06;;;;;;;3.60;3.35;;;-3.10;99.90;;;;;;6097426;23;20426;-78
2023/01/30 07:15:33;;;;;;;3.35;3.15;;;-3.10;99.90;;;;;;6098382;23;20383;-78
2023/01/30 07:18:00;;;;;;;3.20;3.03;;;-3.10;99.90;;;;;;6085547;23;20378;-79
2023/01/30 07:20:29;;;;;;;3.58;3.38;;;-3.10;99.90;;;;;;6098454;23;20760;-79
2023/01/30 07:22:56;;;;;;;4.50;4.30;;;-3.10;99.90;;;;;;6076302;23;20869;-78
2023/01/30 07:25:25;;;;;;;4.43;4.22;;;-3.20;99.90;;;;;;6069786;23;20384;-79
2023/01/30 07:28:02;;;;;;;4.28;3.97;;;-3.30;99.90;;;;;;6068583;23;20382;-78
2023/01/30 07:30:32;;;;;;;5.05;4.75;;;-3.30;99.90;;;;;;6093880;23;20420;-77
2023/01/30 07:32:59;;;;;;;4.90;4.63;;;-3.20;99.90;;;;;;6068623;23;20400;-78
2023/01/30 07:35:29;;;;;;;5.72;5.40;;;-3.20;99.90;;;;;;6069620;23;20381;-79
2023/01/30 07:37:56;;;;;;;5.38;5.00;;;-3.10;99.90;;;;;;6068558;23;20392;-78
2023/01/30 07:40:24;;;;;;;5.10;4.80;;;-3.10;99.90;;;;;;6094094;23;20722;-78
2023/01/30 07:43:05;;;;;;;4.90;4.60;;;-3.10;99.90;;;;;;6068038;23;20951;-79
2023/01/30 07:45:42;;;;;;;4.50;4.25;;;-3.10;99.90;;;;;;6069479;23;20437;-79
2023/01/30 07:48:11;;;;;;;4.80;4.50;;;-3.00;99.90;;;;;;6058854;23;20381;-79
2023/01/30 07:50:38;;;;;;;4.85;4.55;;;-2.90;99.90;;;;;;6069067;23;20385;-78
2023/01/30 07:53:07;;;;;;;4.25;4.00;;;-2.80;99.90;;;;;;6093113;23;20369;-78
2023/01/30 07:55:34;;;;;;;4.93;4.63;;;-2.50;99.90;;;;;;6069770;23;20377;-78
2023/01/30 07:58:01;;;;;;;4.57;4.38;;;-2.10;99.90;;;;;;6068337;23;20381;-78
2023/01/30 08:00:28;;;;;;;4.75;4.50;;;-1.80;99.90;;;;;;6069655;23;20710;-78
2023/01/30 08:02:55;;;;;;;4.68;4.40;;;-1.60;99.90;;;;;;6068278;23;20390;-78
2023/01/30 08:05:22;;;;;;;4.72;4.43;;;-1.50;99.90;;;;;;6094007;23;20476;-78
2023/01/30 08:07:48;;;;;;;4.88;4.57;;;-1.40;99.90;;;;;;6068122;23;20904;-78
2023/01/30 08:10:15;;;;;;;4.53;4.32;;;-1.40;99.90;;;;;;6069063;23;20841;-79
2023/01/30 08:12:44;;;;;;;3.70;3.50;;;-1.20;99.90;;;;;;6069414;23;20404;-78
2023/01/30 08:15:11;;;;;;;4.53;4.28;;;-1.10;99.90;;;;;;6068669;23;20385;-78
2023/01/30 08:17:38;;;;;;;5.10;4.80;;;-1.00;99.90;;;;;;6093935;23;20385;-78
2023/01/30 08:20:06;;;;;;;6.33;5.93;;;-0.90;99.90;;;;;;6068096;23;20427;-78
2023/01/30 08:22:33;;;;;;;5.25;4.95;;;-0.60;99.90;;;;;;6069020;23;20377;-78
2023/01/30 08:25:00;;;;;;;5.00;4.70;;;-0.40;99.90;;;;;;6068288;23;20374;-78
2023/01/30 08:27:27;;;;;;;4.18;3.97;;;-0.20;99.90;;;;;;6069131;23;20432;-79
2023/01/30 08:29:54;;;;;;;4.25;4.03;;;0.00;99.90;;;;;;6070068;23;20920;-78
2023/01/30 08:32:21;;;;;;;4.20;4.00;;;0.10;99.90;;;;;;6099761;23;20433;-79
2023/01/30 08:34:48;;;;;;;4.68;4.38;;;0.30;99.90;;;;;;6078241;23;20377;-78
2023/01/30 08:37:16;;;;;;;4.00;3.80;;;0.40;99.90;;;;;;6078196;23;20544;-79
2023/01/30 08:39:43;;;;;;;3.95;3.75;;;0.50;99.90;;;;;;6077978;23;20393;-79
2023/01/30 08:42:11;;;;;;;4.40;4.10;;;0.70;99.90;;;;;;6076929;23;20394;-78
2023/01/30 08:44:38;;;;;;;4.05;3.85;;;0.80;99.90;;;;;;6078027;23;20392;-78
2023/01/30 08:47:04;;;;;;;3.58;3.38;;;0.80;99.90;;;;;;6078858;23;20377;-79
2023/01/30 08:49:31;;;;;;;3.53;3.33;;;0.80;99.90;;;;;;6079030;23;20381;-78
2023/01/30 08:51:58;;;;;;;3.85;3.65;;;1.00;99.90;;;;;;6078365;23;20374;-79
2023/01/30 08:54:25;;;;;;;3.50;3.30;;;0.90;99.90;;;;;;6081431;23;20377;-79
2023/01/30 08:56:52;;;;;;;3.20;3.10;;;1.00;99.90;;;;;;6081428;23;20449;-79
2023/01/30 08:59:19;;;;;;;4.00;3.80;;;1.20;99.90;;;;;;6082236;23;20377;-78
2023/01/30 09:01:46;;;;;;;3.43;3.30;;;1.30;99.90;;;;;;6078739;23;20417;-79
2023/01/30 09:04:13;;;;;;;3.85;3.65;;;1.40;99.30;;;;;;6075850;23;20411;-78
2023/01/30 09:06:40;;;;;;;3.83;3.63;;;1.60;98.10;;;;;;6074754;23;20838;-78
2023/01/30 09:09:07;;;;;;;4.00;3.80;;;1.80;96.80;;;;;;6075454;23;20415;-79
2023/01/30 09:11:33;;;;;;;3.75;3.55;;;2.00;96.20;;;;;;6076831;23;20410;-78
2023/01/30 09:14:00;;;;;;;3.90;3.70;;;2.20;95.20;;;;;;6076743;23;20385;-79
2023/01/30 09:16:27;;;;;;;3.83;3.60;;;2.30;94.60;;;;;;6079246;23;20381;-79
2023/01/30 09:18:55;;;;;;;4.07;3.88;;;2.50;92.70;;;;;;6078777;23;20381;-79
2023/01/30 09:21:21;;;;;;;3.55;3.35;;;2.60;91.70;;;;;;6081896;23;20706;-78
2023/01/30 09:23:48;;;;;;;3.90;3.70;;;2.80;91.60;;;;;;6081795;23;20615;-79
2023/01/30 09:26:15;;;;;;;4.00;3.80;;;2.60;88.90;;;;;;6083692;23;20409;-79
2023/01/30 09:28:42;;;;;;;3.90;3.70;;;2.80;90.60;;;;;;6084072;23;20389;-79
2023/01/30 09:31:09;;;;;;;3.95;3.75;;;2.90;90.00;;;;;;6109335;23;20387;-79
2023/01/30 09:33:36;;;;;;;4.13;3.90;;;3.00;86.40;;;;;;6082581;23;20405;-79
2023/01/30 09:36:04;;;;;;;4.22;4.03;;;3.10;84.50;;;;;;6080984;23;20369;-78
2023/01/30 09:38:30;;;;;;;4.53;4.22;;;3.10;87.60;;;;;;6082955;23;20382;-79
2023/01/30 09:41:28;;;;;;;3.92;3.63;;;3.10;90.40;;;;;;6083949;23;20388;-79
2023/01/30 09:44:31;;;;;;;3.88;3.67;;;3.20;91.30;;;;;;6082058;23;20394;-79
2023/01/30 09:47:04;;;;;;;3.45;3.33;;;3.30;91.00;;;;;;6107141;23;20381;-79
2023/01/30 09:49:40;;;;;;;3.05;2.95;;;3.30;91.00;;;;;;6081109;23;20381;-79
2023/01/30 09:52:15;;;;;;;3.67;3.47;;;3.40;91.00;;;;;;6077645;23;20452;-79
2023/01/30 09:54:44;;;;;;;3.40;3.20;;;3.40;92.00;;;;;;6081227;23;20448;-79
2023/01/30 09:57:19;;;;;;;3.20;3.10;;;3.60;91.80;;;;;;6076076;23;20429;-79
2023/01/30 10:00:14;;;;;;;3.10;2.92;;;3.70;91.20;;;;;;6078016;23;20365;-79
2023/01/30 10:02:52;;;;;;;3.13;3.03;;;3.90;89.80;;;;;;6072574;23;20402;-80
2023/01/30 10:05:20;;;;;;;3.57;3.37;;;4.00;89.10;;;;;;6070563;23;20437;-80
2023/01/30 10:08:19;;;;;;;3.95;3.75;;;4.20;88.00;;;;;;6070492;23;20763;-79
2023/01/30 10:10:50;;;;;;;3.50;3.30;;;4.40;87.00;;;;;;6069496;23;20416;-79
2023/01/30 10:14:08;;;;;;;3.33;3.22;;;4.50;87.60;;;;;;6072457;23;20397;-79
2023/01/30 10:16:53;;;;;;;3.65;3.45;;;4.70;84.80;;;;;;6095198;23;20456;-80
2023/01/30 10:20:12;;;;;;;3.90;3.70;;;4.80;81.60;;;;;;6072924;23;20495;-80
2023/01/30 10:22:57;;;;;;;4.03;3.83;;;5.10;79.20;;;;;;6067916;23;20378;-80
2023/01/30 10:26:08;;;;;;;3.72;3.53;;;5.20;76.30;;;;;;6095264;23;20371;-80
2023/01/30 10:28:41;;;;;;;4.35;4.05;;;5.20;73.70;;;;;;6008600;23;20376;-80
2023/01/30 10:31:18;;;;;;;4.20;4.00;;;5.20;72.40;;;;;;6030232;23;20479;-80
2023/01/30 10:34:02;;;;;;;3.65;3.45;;;5.20;73.40;;;;;;6084865;23;20383;-80
2023/01/30 10:37:08;;;;;;;3.47;3.28;;;5.40;73.20;;;;;;6095167;23;20466;-80
2023/01/30 10:39:49;;;;;;;3.80;3.50;;;5.70;70.30;;;;;;6049324;23;20379;-80
2023/01/30 10:43:00;;;;;;;3.72;3.53;;;5.90;67.20;;;;;;6096777;23;20371;-78
2023/01/30 10:45:41;;;;;;;3.08;2.90;;;6.00;66.70;;;;;;6094700;23;20379;-80
2023/01/30 10:48:17;;;;;;;2.95;2.85;;;6.20;64.10;;;;;;6097594;23;20458;-80
2023/01/30 10:50:43;;;;;;;3.25;3.05;;;6.40;62.80;;;;;;6123441;23;20866;-79
2023/01/30 10:53:43;;;;;;;3.13;3.03;;;6.30;60.90;;;;;;6099801;23;20755;-81
2023/01/30 10:56:16;;;;;;;3.00;2.90;;;6.50;62.20;;;;;;6098575;23;20371;-80
2023/01/30 10:59:19;;;;;;;3.17;3.03;;;6.80;61.60;;;;;;6097878;23;20436;-80
2023/01/30 11:02:09;;;;;;;3.28;3.08;;;6.70;58.40;;;;;;6097562;23;20403;-80
2023/01/30 11:04:58;;;;;;;3.13;2.97;;;6.80;59.10;;;;;;6086697;23;20836;-80
2023/01/30 11:07:30;;;;;;;2.85;2.72;;;7.00;58.60;;;;;;6097416;23;20380;-80
2023/01/30 11:09:58;;;;;;;3.28;3.08;;;7.10;59.30;;;;;;6098177;23;20382;-80
2023/01/30 11:12:25;;;;;;;2.95;2.78;;;7.20;59.10;;;;;;6096962;23;20380;-80
2023/01/30 11:14:57;;;;;;;2.60;2.40;;;7.50;58.20;;;;;;6098067;23;20372;-80
2023/01/30 11:17:31;;;;;;;3.40;3.20;;;7.60;53.80;;;;;;6097435;23;20426;-80
2023/01/30 11:20:03;;;;;;;3.37;3.07;;;7.60;54.10;;;;;;6098987;23;20376;-80
2023/01/30 11:22:33;;;;;;;2.50;2.40;;;7.80;53.60;;;;;;6097248;23;20383;-80
2023/01/30 11:25:10;;;;;;;2.50;2.30;;;7.80;52.80;;;;;;6097073;23;20368;-80
2023/01/30 11:27:40;;;;;;;3.28;3.08;;;7.80;51.90;;;;;;6097633;23;20394;-80
2023/01/30 11:30:14;;;;;;;2.78;2.67;;;7.80;52.80;;;;;;6098980;23;20387;-81
2023/01/30 11:32:43;;;;;;;3.22;3.03;;;7.60;53.70;;;;;;6099482;23;20481;-80
2023/01/30 11:35:13;;;;;;;2.03;1.92;;;7.50;53.80;;;;;;6098711;23;20828;-80
2023/01/30 11:37:43;;;;;;;2.30;2.20;;;7.70;51.30;;;;;;6098541;23;20752;-80
2023/01/30 11:40:16;;;;;;;1.92;1.83;;;7.80;51.80;;;;;;6124317;23;20430;-81
2023/01/30 11:42:46;;;;;;;1.98;1.88;;;8.00;50.40;;;;;;6098143;23;20376;-80
2023/01/30 11:45:13;;;;;;;2.20;2.10;;;8.10;49.40;;;;;;6100320;23;20410;-80
2023/01/30 11:47:53;;;;;;;2.40;2.30;;;8.30;50.70;;;;;;6099419;23;20382;-81
2023/01/30 11:50:49;;;;;;;2.40;2.30;;;8.50;50.20;;;;;;6101470;23;20716;-80
2023/01/30 11:53:35;;;;;;;2.75;2.65;;;8.70;50.70;;;;;;6116885;23;20403;-80
2023/01/30 11:56:14;;;;;;;2.40;2.30;;;8.80;50.80;;;;;;6115265;23;20364;-80
2023/01/30 11:58:46;;;;;;;2.53;2.38;;;9.00;49.60;;;;;;6110107;23;20379;-80
2023/01/30 12:01:16;;;;;;;2.40;2.30;;;9.10;49.50;;;;;;6112825;23;20376;-80
2023/01/30 12:03:53;;;;;;;2.45;2.33;;;9.20;50.00;;;;;;6106670;23;20380;-80
2023/01/30 12:06:23;;;;;;;2.80;2.70;;;9.40;49.30;;;;;;6107110;23;20831;-80
2023/01/30 12:08:53;;;;;;;2.63;2.42;;;9.40;49.10;;;;;;6109744;23;20372;-81
2023/01/30 12:11:27;;;;;;;2.40;2.30;;;9.40;48.00;;;;;;6110772;23;20384;-80
2023/01/30 12:14:07;;;;;;;2.47;2.38;;;9.40;47.70;;;;;;6104680;23;20380;-81
2023/01/30 12:17:00;;;;;;;2.80;2.60;;;9.40;47.30;;;;;;6109979;23;20744;-80
2023/01/30 12:19:35;;;;;;;2.00;1.90;;;9.40;48.50;;;;;;6131475;23;20830;-80
2023/01/30 12:22:42;;;;;;;2.55;2.35;;;9.60;48.30;;;;;;6104061;23;20385;-80
2023/01/30 12:25:17;;;;;;;2.28;2.17;;;9.90;47.00;;;;;;6104233;23;20369;-80
2023/01/30 12:28:02;;;;;;;2.70;2.60;;;10.00;47.60;;;;;;6106534;23;20381;-80
2023/01/30 12:30:41;;;;;;;2.53;2.42;;;10.00;47.60;;;;;;6110209;23;20381;-80
2023/01/30 12:33:14;;;;;;;2.65;2.45;;;10.00;46.70;;;;;;6107293;23;20447;-80
2023/01/30 12:36:10;;;;;;;3.00;2.70;;;9.60;47.60;;;;;;6129492;23;20686;-80
2023/01/30 12:39:15;;;;;;;3.03;2.83;;;9.60;49.40;;;;;;6110630;23;20462;-81
2023/01/30 12:42:12;;;;;;;3.08;2.97;;;9.30;49.40;;;;;;5965581;24;20388;-81
2023/01/30 12:45:03;;;;;;;2.70;2.60;;;9.20;49.10;;;;;;5988678;23;20494;-80
2023/01/30 12:47:30;;;;;;;2.53;2.43;;;9.40;50.00;;;;;;6111444;23;20380;-81
2023/01/30 12:50:00;;;;;;;2.20;2.10;;;9.70;48.70;;;;;;6107786;23;20380;-80
2023/01/30 12:52:57;;;;;;;2.38;2.28;;;9.60;47.40;;;;;;6103238;23;20387;-81
2023/01/30 12:55:44;;;;;;;2.30;2.20;;;9.60;47.80;;;;;;6104775;23;20376;-80
2023/01/30 12:58:14;;;;;;;2.35;2.25;;;10.00;47.90;;;;;;6132117;23;20709;-81
2023/01/30 13:01:04;;;;;;;2.42;2.33;;;10.20;49.00;;;;;;6104132;23;20867;-81
2023/01/30 13:04:03;;;;;;;2.63;2.53;;;10.50;47.80;;;;;;6099212;23;20411;-80
2023/01/30 13:06:58;;;;;;;2.70;2.60;;;10.80;47.30;;;;;;6099442;23;20387;-81
2023/01/30 13:09:40;;;;;;;3.10;2.90;;;10.90;46.80;;;;;;6101296;23;20399;-80
2023/01/30 13:12:35;;;;;;;2.95;2.85;;;10.70;46.20;;;;;;6102749;23;20864;-80
2023/01/30 13:15:13;;;;;;;2.60;2.50;;;10.60;45.70;;;;;;6127931;23;20683;-80
2023/01/30 13:17:45;;;;;;;2.85;2.75;;;10.90;46.10;;;;;;6126107;23;20383;-80
2023/01/30 13:20:12;;;;;;;2.50;2.40;;;10.90;46.60;;;;;;6099944;23;20379;-80
2023/01/30 13:22:56;;;;;;;2.90;2.80;;;10.70;46.10;;;;;;6098860;23;20856;-80
2023/01/30 13:25:41;;;;;;;2.88;2.78;;;10.50;47.10;;;;;;6102605;23;20387;-80
2023/01/30 13:28:18;;;;;;;2.70;2.60;;;10.60;48.00;;;;;;6099826;23;21305;-81
2023/01/30 13:30:50;;;;;;;3.08;2.88;;;10.80;46.60;;;;;;6098564;23;20376;-80
2023/01/30 13:33:38;;;;;;;2.70;2.60;;;10.60;47.20;;;;;;6099422;23;20371;-80
2023/01/30 13:36:32;;;;;;;3.22;3.03;;;10.90;46.70;;;;;;6098404;23;20419;-80
2023/01/30 13:39:00;;;;;;;3.67;3.47;;;10.80;46.60;;;;;;6094753;23;20407;-81
2023/01/30 13:41:34;;;;;;;2.70;2.60;;;10.50;47.60;;;;;;6098217;23;20383;-81
2023/01/30 13:44:19;;;;;;;2.78;2.67;;;10.40;47.20;;;;;;6097123;23;20383;-80
2023/01/30 13:46:47;;;;;;;3.13;2.92;;;10.50;47.80;;;;;;6096479;23;20372;-80
2023/01/30 13:49:41;;;;;;;2.72;2.63;;;10.50;48.10;;;;;;6096993;23;20376;-80
2023/01/30 13:52:22;;;;;;;3.00;2.80;;;10.70;47.40;;;;;;6096041;23;20380;-81
2023/01/30 13:55:10;;;;;;;2.55;2.45;;;10.90;46.40;;;;;;6097226;23;20446;-80
2023/01/30 13:58:13;;;;;;;2.80;2.70;;;11.10;46.50;;;;;;6122293;23;20406;-80
2023/01/30 14:00:51;;;;;;;2.85;2.75;;;11.20;46.00;;;;;;6082889;23;20379;-81
2023/01/30 14:03:25;;;;;;;2.80;2.70;;;10.90;46.20;;;;;;6097211;23;20717;-80
2023/01/30 14:05:59;;;;;;;2.75;2.65;;;10.90;45.70;;;;;;6098152;23;20438;-80
2023/01/30 14:08:59;;;;;;;2.50;2.40;;;10.60;46.80;;;;;;6100554;23;20704;-81
2023/01/30 14:11:41;;;;;;;3.10;2.90;;;10.70;47.60;;;;;;6092231;23;20391;-80
2023/01/30 14:14:17;;;;;;;2.95;2.75;;;10.70;46.60;;;;;;6097523;23;20379;-81
2023/01/30 14:16:50;;;;;;;3.30;3.10;;;10.60;46.70;;;;;;6120827;23;20367;-81
2023/01/30 14:19:30;;;;;;;2.97;2.78;;;10.70;47.10;;;;;;6096517;23;20764;-81
2023/01/30 14:22:00;;;;;;;2.60;2.50;;;10.90;46.50;;;;;;6094594;23;20376;-81
2023/01/30 14:24:30;;;;;;;3.30;3.10;;;10.90;45.70;;;;;;6096787;23;20712;-81
2023/01/30 14:26:57;;;;;;;3.38;3.17;;;11.00;46.20;;;;;;6094994;23;20396;-81
2023/01/30 14:29:41;;;;;;;3.17;2.97;;;10.90;46.00;;;;;;6095465;23;20367;-80
2023/01/30 14:32:11;;;;;;;3.00;2.80;;;11.00;46.50;;;;;;6121049;23;20736;-81
2023/01/30 14:35:00;;;;;;;2.88;2.78;;;11.00;46.10;;;;;;6121944;23;20700;-78
2023/01/30 14:37:40;;;;;;;2.72;2.63;;;11.00;45.50;;;;;;6094030;23;20375;-78
2023/01/30 14:40:22;;;;;;;2.88;2.78;;;10.50;47.00;;;;;;6096227;23;20775;-79
2023/01/30 14:43:18;;;;;;;2.97;2.83;;;10.70;47.50;;;;;;6096282;23;20402;-78
2023/01/30 14:45:56;;;;;;;2.63;2.53;;;10.90;47.30;;;;;;6119826;23;20376;-78
2023/01/30 14:48:30;;;;;;;2.90;2.80;;;10.90;47.00;;;;;;6095668;23;20376;-78
2023/01/30 14:51:35;;;;;;;2.63;2.50;;;10.90;45.50;;;;;;6096885;23;20466;-79
2023/01/30 14:54:18;;;;;;;3.30;3.10;;;10.90;45.30;;;;;;6118810;23;20367;-78
2023/01/30 14:57:00;;;;;;;3.10;2.90;;;10.50;45.90;;;;;;6093927;23;20371;-79
2023/01/30 14:59:38;;;;;;;2.90;2.70;;;10.60;46.30;;;;;;6096887;23;20376;-79
2023/01/30 15:02:14;;;;;;;2.93;2.83;;;10.60;46.30;;;;;;6095429;23;20736;-78
2023/01/30 15:04:43;;;;;;;2.97;2.88;;;10.70;46.30;;;;;;6094642;23;20376;-78
2023/01/30 15:07:36;;;;;;;3.33;3.13;;;10.80;46.50;;;;;;6121776;23;20371;-77
2023/01/30 15:10:44;;;;;;;3.65;3.45;;;10.30;47.10;;;;;;6095229;23;20426;-79
2023/01/30 15:13:45;;;;;;;3.20;3.00;;;10.20;48.50;;;;;;6094510;23;20384;-78
2023/01/30 15:16:17;;;;;;;3.97;3.78;;;10.10;49.00;;;;;;6120942;23;20836;-79
2023/01/30 15:19:03;;;;;;;3.80;3.60;;;10.10;49.60;;;;;;6096056;23;20376;-78
2023/01/30 15:22:00;;;;;;;3.90;3.65;;;10.10;50.20;;;;;;6118658;23;20372;-78
2023/01/30 15:24:45;;;;;;;3.80;3.60;;;10.10;50.30;;;;;;6095392;23;20428;-77
2023/01/30 15:27:32;;;;;;;3.75;3.50;;;9.90;50.10;;;;;;6095350;23;20380;-78
2023/01/30 15:30:27;;;;;;;3.58;3.38;;;10.00;50.50;;;;;;6105125;23;20606;-77
2023/01/30 15:33:18;;;;;;;2.95;2.85;;;10.10;50.50;;;;;;6119979;23;20423;-79
2023/01/30 15:35:56;;;;;;;3.30;3.10;;;10.10;50.30;;;;;;6099565;23;20387;-78
2023/01/30 15:38:30;;;;;;;3.30;3.10;;;10.30;50.10;;;;;;6098159;23;20399;-78
2023/01/30 15:41:01;;;;;;;3.83;3.63;;;10.40;49.60;;;;;;6096384;23;20954;-79
2023/01/30 15:43:50;;;;;;;3.50;3.30;;;10.40;49.40;;;;;;6097779;23;20408;-79
2023/01/30 15:46:35;;;;;;;5.28;4.97;;;10.40;49.20;;;;;;6122552;23;20388;-79
2023/01/30 15:49:05;;;;;;;3.40;3.20;;;10.10;49.70;;;;;;6097186;23;20383;-80
2023/01/30 15:51:33;;;;;;;4.95;4.65;;;10.00;50.30;;;;;;6097746;23;20395;-79